Terminal Aerodrome Forecast
Issued by NWS Cleveland, OH

Home | Current Version | Previous Version | Graphics & Text | Print | Product List | Glossary Off
Versions: 1 2 3 4 5 6 7 8 9 10 11 12 13 14 15 16 17 18 19 20 21

000
FTUS41 KCLE 221700
TAFTOL
TAF
KTOL 221731Z 2218/2318 10008KT 6SM HZ BKN045 OVC090
     FM230600 10007KT 5SM BR VCSH SCT015 OVC025
      TEMPO 2309/2313 2SM -SHRA SCT008 OVC012
     FM231300 17006KT 3SM -DZ BR SCT003 OVC008=

USA.gov is the U.S. government's official web portal to all federal, state and local government web resources and services.